sensor_id;sensor_type;location;lat;lon;timestamp;temperature;humidity
42421;DHT22;28063;48.140;11.588;2023-03-05T00:02:24;1.10;91.80
42421;DHT22;28063;48.140;11.588;2023-03-05T00:04:50;1.10;91.90
42421;DHT22;28063;48.140;11.588;2023-03-05T00:07:15;1.10;92.00
42421;DHT22;28063;48.140;11.588;2023-03-05T00:09:41;1.10;92.10
42421;DHT22;28063;48.140;11.588;2023-03-05T00:12:07;1.10;92.20
42421;DHT22;28063;48.140;11.588;2023-03-05T00:14:33;1.10;92.20
42421;DHT22;28063;48.140;11.588;2023-03-05T00:16:58;1.20;92.30
42421;DHT22;28063;48.140;11.588;2023-03-05T00:19:24;1.20;92.30
42421;DHT22;28063;48.140;11.588;2023-03-05T00:21:50;1.30;92.20
42421;DHT22;28063;48.140;11.588;2023-03-05T00:24:17;1.20;92.10
42421;DHT22;28063;48.140;11.588;2023-03-05T00:26:44;1.20;92.10
42421;DHT22;28063;48.140;11.588;2023-03-05T00:29:13;1.10;92.20
42421;DHT22;28063;48.140;11.588;2023-03-05T00:31:40;1.10;92.30
42421;DHT22;28063;48.140;11.588;2023-03-05T00:34:11;1.10;92.30
42421;DHT22;28063;48.140;11.588;2023-03-05T00:36:51;1.10;92.30
42421;DHT22;28063;48.140;11.588;2023-03-05T00:39:18;1.10;92.40
42421;DHT22;28063;48.140;11.588;2023-03-05T00:41:44;1.10;92.50
42421;DHT22;28063;48.140;11.588;2023-03-05T00:44:10;1.00;92.40
42421;DHT22;28063;48.140;11.588;2023-03-05T00:46:36;1.00;92.50
42421;DHT22;28063;48.140;11.588;2023-03-05T00:49:02;1.00;92.60
42421;DHT22;28063;48.140;11.588;2023-03-05T00:51:27;1.00;92.60
42421;DHT22;28063;48.140;11.588;2023-03-05T00:53:54;0.90;92.60
42421;DHT22;28063;48.140;11.588;2023-03-05T00:56:20;0.90;93.00
42421;DHT22;28063;48.140;11.588;2023-03-05T00:58:46;0.80;92.80
42421;DHT22;28063;48.140;11.588;2023-03-05T01:01:12;0.80;92.90
42421;DHT22;28063;48.140;11.588;2023-03-05T01:03:38;0.80;93.10
42421;DHT22;28063;48.140;11.588;2023-03-05T01:06:07;0.70;93.10
42421;DHT22;28063;48.140;11.588;2023-03-05T01:08:33;0.70;93.30
42421;DHT22;28063;48.140;11.588;2023-03-05T01:11:00;0.70;93.40
42421;DHT22;28063;48.140;11.588;2023-03-05T01:13:25;0.70;93.50
42421;DHT22;28063;48.140;11.588;2023-03-05T01:15:51;0.80;93.60
42421;DHT22;28063;48.140;11.588;2023-03-05T01:18:18;0.80;93.60
42421;DHT22;28063;48.140;11.588;2023-03-05T01:20:44;0.90;93.60
42421;DHT22;28063;48.140;11.588;2023-03-05T01:23:10;0.90;93.50
42421;DHT22;28063;48.140;11.588;2023-03-05T01:25:35;0.90;93.30
42421;DHT22;28063;48.140;11.588;2023-03-05T01:28:01;0.90;93.30
42421;DHT22;28063;48.140;11.588;2023-03-05T01:30:27;0.90;93.30
42421;DHT22;28063;48.140;11.588;2023-03-05T01:32:54;0.90;93.30
42421;DHT22;28063;48.140;11.588;2023-03-05T01:35:21;1.00;93.30
42421;DHT22;28063;48.140;11.588;2023-03-05T01:37:47;0.90;93.20
42421;DHT22;28063;48.140;11.588;2023-03-05T01:40:17;1.00;93.30
42421;DHT22;28063;48.140;11.588;2023-03-05T01:43:37;1.00;93.30
42421;DHT22;28063;48.140;11.588;2023-03-05T01:48:38;1.10;93.30
42421;DHT22;28063;48.140;11.588;2023-03-05T01:51:04;1.20;93.20
42421;DHT22;28063;48.140;11.588;2023-03-05T01:53:30;1.20;93.20
42421;DHT22;28063;48.140;11.588;2023-03-05T01:55:57;1.20;93.20
42421;DHT22;28063;48.140;11.588;2023-03-05T01:58:23;1.20;93.10
42421;DHT22;28063;48.140;11.588;2023-03-05T02:00:52;1.20;93.10
42421;DHT22;28063;48.140;11.588;2023-03-05T02:03:19;1.20;93.00
42421;DHT22;28063;48.140;11.588;2023-03-05T02:05:45;1.20;93.00
42421;DHT22;28063;48.140;11.588;2023-03-05T02:08:14;1.20;93.00
42421;DHT22;28063;48.140;11.588;2023-03-05T02:10:50;1.20;93.00
42421;DHT22;28063;48.140;11.588;2023-03-05T02:13:26;1.20;93.10
42421;DHT22;28063;48.140;11.588;2023-03-05T02:15:53;1.30;93.20
42421;DHT22;28063;48.140;11.588;2023-03-05T02:18:23;1.30;93.10
42421;DHT22;28063;48.140;11.588;2023-03-05T02:23:23;1.30;93.20
42421;DHT22;28063;48.140;11.588;2023-03-05T02:25:50;1.30;93.10
42421;DHT22;28063;48.140;11.588;2023-03-05T02:28:23;1.30;93.00
42421;DHT22;28063;48.140;11.588;2023-03-05T02:30:53;1.30;93.00
42421;DHT22;28063;48.140;11.588;2023-03-05T02:33:19;1.30;93.10
42421;DHT22;28063;48.140;11.588;2023-03-05T02:35:45;1.40;93.20
42421;DHT22;28063;48.140;11.588;2023-03-05T02:38:12;1.40;93.10
42421;DHT22;28063;48.140;11.588;2023-03-05T02:40:38;1.30;93.30
42421;DHT22;28063;48.140;11.588;2023-03-05T02:43:05;1.40;93.00
42421;DHT22;28063;48.140;11.588;2023-03-05T02:45:30;1.30;93.00
42421;DHT22;28063;48.140;11.588;2023-03-05T02:47:56;1.30;93.00
42421;DHT22;28063;48.140;11.588;2023-03-05T02:50:22;1.30;93.10
42421;DHT22;28063;48.140;11.588;2023-03-05T02:52:48;1.30;93.20
42421;DHT22;28063;48.140;11.588;2023-03-05T02:55:14;1.30;93.20
42421;DHT22;28063;48.140;11.588;2023-03-05T02:57:40;1.40;93.30
42421;DHT22;28063;48.140;11.588;2023-03-05T03:00:07;1.40;93.30
42421;DHT22;28063;48.140;11.588;2023-03-05T03:02:40;1.40;93.20
42421;DHT22;28063;48.140;11.588;2023-03-05T03:05:06;1.40;93.20
42421;DHT22;28063;48.140;11.588;2023-03-05T03:07:32;1.40;93.20
42421;DHT22;28063;48.140;11.588;2023-03-05T03:10:03;1.30;93.20
42421;DHT22;28063;48.140;11.588;2023-03-05T03:12:37;1.30;93.30
42421;DHT22;28063;48.140;11.588;2023-03-05T03:15:03;1.40;93.30
42421;DHT22;28063;48.140;11.588;2023-03-05T03:17:29;1.30;93.30
42421;DHT22;28063;48.140;11.588;2023-03-05T03:19:54;1.40;93.40
42421;DHT22;28063;48.140;11.588;2023-03-05T03:22:20;1.30;93.40
42421;DHT22;28063;48.140;11.588;2023-03-05T03:24:46;1.40;93.40
42421;DHT22;28063;48.140;11.588;2023-03-05T03:27:11;1.40;93.40
42421;DHT22;28063;48.140;11.588;2023-03-05T03:29:39;1.40;93.40
42421;DHT22;28063;48.140;11.588;2023-03-05T03:32:05;1.40;93.50
42421;DHT22;28063;48.140;11.588;2023-03-05T03:34:32;1.40;93.50
42421;DHT22;28063;48.140;11.588;2023-03-05T03:36:58;1.40;93.40
42421;DHT22;28063;48.140;11.588;2023-03-05T03:39:23;1.40;93.40
42421;DHT22;28063;48.140;11.588;2023-03-05T03:41:52;1.40;93.50
42421;DHT22;28063;48.140;11.588;2023-03-05T03:44:19;1.40;93.50
42421;DHT22;28063;48.140;11.588;2023-03-05T03:46:47;1.40;93.50
42421;DHT22;28063;48.140;11.588;2023-03-05T03:49:17;1.40;93.60
42421;DHT22;28063;48.140;11.588;2023-03-05T03:51:44;1.40;93.80
42421;DHT22;28063;48.140;11.588;2023-03-05T03:54:09;1.50;93.80
42421;DHT22;28063;48.140;11.588;2023-03-05T03:56:35;1.50;93.70
42421;DHT22;28063;48.140;11.588;2023-03-05T03:59:01;1.50;93.70
42421;DHT22;28063;48.140;11.588;2023-03-05T04:01:27;1.50;93.70
42421;DHT22;28063;48.140;11.588;2023-03-05T04:03:52;1.60;93.70
42421;DHT22;28063;48.140;11.588;2023-03-05T04:06:18;1.60;93.70
42421;DHT22;28063;48.140;11.588;2023-03-05T04:08:44;1.60;93.70
42421;DHT22;28063;48.140;11.588;2023-03-05T04:11:12;1.70;93.70
42421;DHT22;28063;48.140;11.588;2023-03-05T04:13:42;1.70;93.60
42421;DHT22;28063;48.140;11.588;2023-03-05T04:16:08;1.70;93.50
42421;DHT22;28063;48.140;11.588;2023-03-05T04:18:34;1.70;93.60
42421;DHT22;28063;48.140;11.588;2023-03-05T04:20:59;1.80;93.60
42421;DHT22;28063;48.140;11.588;2023-03-05T04:23:25;1.70;93.50
42421;DHT22;28063;48.140;11.588;2023-03-05T04:25:51;1.80;93.50
42421;DHT22;28063;48.140;11.588;2023-03-05T04:28:16;1.80;93.50
42421;DHT22;28063;48.140;11.588;2023-03-05T04:30:42;1.80;93.60
42421;DHT22;28063;48.140;11.588;2023-03-05T04:33:08;1.80;93.50
42421;DHT22;28063;48.140;11.588;2023-03-05T04:35:34;1.90;93.50
42421;DHT22;28063;48.140;11.588;2023-03-05T04:38:00;1.80;93.40
42421;DHT22;28063;48.140;11.588;2023-03-05T04:40:25;1.80;93.40
42421;DHT22;28063;48.140;11.588;2023-03-05T04:42:51;1.90;93.50
42421;DHT22;28063;48.140;11.588;2023-03-05T04:45:17;1.90;93.50
42421;DHT22;28063;48.140;11.588;2023-03-05T04:47:42;1.90;93.50
42421;DHT22;28063;48.140;11.588;2023-03-05T04:50:09;1.90;93.50
42421;DHT22;28063;48.140;11.588;2023-03-05T04:52:40;2.00;93.50
42421;DHT22;28063;48.140;11.588;2023-03-05T04:55:06;1.90;93.40
42421;DHT22;28063;48.140;11.588;2023-03-05T04:57:32;1.90;93.40
42421;DHT22;28063;48.140;11.588;2023-03-05T04:59:58;1.90;93.50
42421;DHT22;28063;48.140;11.588;2023-03-05T05:02:24;1.90;93.60
42421;DHT22;28063;48.140;11.588;2023-03-05T05:04:53;1.90;93.60
42421;DHT22;28063;48.140;11.588;2023-03-05T05:07:19;2.00;93.70
42421;DHT22;28063;48.140;11.588;2023-03-05T05:09:48;2.00;93.70
42421;DHT22;28063;48.140;11.588;2023-03-05T05:12:13;2.00;93.60
42421;DHT22;28063;48.140;11.588;2023-03-05T05:14:39;2.00;93.50
42421;DHT22;28063;48.140;11.588;2023-03-05T05:17:05;2.00;93.60
42421;DHT22;28063;48.140;11.588;2023-03-05T05:19:31;2.10;93.60
42421;DHT22;28063;48.140;11.588;2023-03-05T05:21:57;2.10;93.60
42421;DHT22;28063;48.140;11.588;2023-03-05T05:24:23;2.10;93.50
42421;DHT22;28063;48.140;11.588;2023-03-05T05:26:48;2.10;93.50
42421;DHT22;28063;48.140;11.588;2023-03-05T05:29:14;2.10;93.50
42421;DHT22;28063;48.140;11.588;2023-03-05T05:31:40;2.10;93.50
42421;DHT22;28063;48.140;11.588;2023-03-05T05:34:06;2.10;93.50
42421;DHT22;28063;48.140;11.588;2023-03-05T05:36:31;2.10;93.60
42421;DHT22;28063;48.140;11.588;2023-03-05T05:38:57;2.10;93.60
42421;DHT22;28063;48.140;11.588;2023-03-05T05:41:23;2.10;93.60
42421;DHT22;28063;48.140;11.588;2023-03-05T05:43:49;2.10;93.60
42421;DHT22;28063;48.140;11.588;2023-03-05T05:46:17;2.10;93.60
42421;DHT22;28063;48.140;11.588;2023-03-05T05:48:44;2.20;93.70
42421;DHT22;28063;48.140;11.588;2023-03-05T05:51:15;2.10;93.70
42421;DHT22;28063;48.140;11.588;2023-03-05T05:53:40;2.10;93.70
42421;DHT22;28063;48.140;11.588;2023-03-05T05:56:08;2.10;93.70
42421;DHT22;28063;48.140;11.588;2023-03-05T05:58:35;2.10;93.70
42421;DHT22;28063;48.140;11.588;2023-03-05T06:01:01;2.00;94.10
42421;DHT22;28063;48.140;11.588;2023-03-05T06:03:26;2.10;93.90
42421;DHT22;28063;48.140;11.588;2023-03-05T06:05:52;2.10;93.90
42421;DHT22;28063;48.140;11.588;2023-03-05T06:08:18;2.10;93.90
42421;DHT22;28063;48.140;11.588;2023-03-05T06:10:44;2.20;94.00
42421;DHT22;28063;48.140;11.588;2023-03-05T06:13:10;2.20;94.00
42421;DHT22;28063;48.140;11.588;2023-03-05T06:15:35;2.20;94.00
42421;DHT22;28063;48.140;11.588;2023-03-05T06:18:01;2.20;93.90
42421;DHT22;28063;48.140;11.588;2023-03-05T06:20:27;2.20;93.90
42421;DHT22;28063;48.140;11.588;2023-03-05T06:22:53;2.20;94.00
42421;DHT22;28063;48.140;11.588;2023-03-05T06:25:19;2.20;94.00
42421;DHT22;28063;48.140;11.588;2023-03-05T06:27:45;2.20;94.00
42421;DHT22;28063;48.140;11.588;2023-03-05T06:30:11;2.20;94.00
42421;DHT22;28063;48.140;11.588;2023-03-05T06:32:37;2.20;94.00
42421;DHT22;28063;48.140;11.588;2023-03-05T06:35:03;2.20;94.00
42421;DHT22;28063;48.140;11.588;2023-03-05T06:37:29;2.30;94.00
42421;DHT22;28063;48.140;11.588;2023-03-05T06:39:55;2.30;94.00
42421;DHT22;28063;48.140;11.588;2023-03-05T06:42:20;2.20;94.00
42421;DHT22;28063;48.140;11.588;2023-03-05T06:44:46;2.30;94.10
42421;DHT22;28063;48.140;11.588;2023-03-05T06:47:12;2.30;94.20
42421;DHT22;28063;48.140;11.588;2023-03-05T06:49:39;2.30;94.20
42421;DHT22;28063;48.140;11.588;2023-03-05T06:52:05;2.40;94.10
42421;DHT22;28063;48.140;11.588;2023-03-05T06:54:31;2.40;94.00
42421;DHT22;28063;48.140;11.588;2023-03-05T06:56:57;2.40;94.00
42421;DHT22;28063;48.140;11.588;2023-03-05T06:59:23;2.40;94.10
42421;DHT22;28063;48.140;11.588;2023-03-05T07:01:48;2.40;94.10
42421;DHT22;28063;48.140;11.588;2023-03-05T07:04:14;2.40;94.10
42421;DHT22;28063;48.140;11.588;2023-03-05T07:06:40;2.40;94.00
42421;DHT22;28063;48.140;11.588;2023-03-05T07:09:08;2.40;94.00
42421;DHT22;28063;48.140;11.588;2023-03-05T07:11:35;2.30;94.00
42421;DHT22;28063;48.140;11.588;2023-03-05T07:14:01;2.30;94.20
42421;DHT22;28063;48.140;11.588;2023-03-05T07:16:30;2.30;94.20
42421;DHT22;28063;48.140;11.588;2023-03-05T07:18:58;2.40;94.40
42421;DHT22;28063;48.140;11.588;2023-03-05T07:21:27;2.40;94.30
42421;DHT22;28063;48.140;11.588;2023-03-05T07:23:54;2.40;94.20
42421;DHT22;28063;48.140;11.588;2023-03-05T07:26:21;2.40;94.30
42421;DHT22;28063;48.140;11.588;2023-03-05T07:28:46;2.40;94.30
42421;DHT22;28063;48.140;11.588;2023-03-05T07:31:17;2.40;94.40
42421;DHT22;28063;48.140;11.588;2023-03-05T07:33:47;2.40;94.40
42421;DHT22;28063;48.140;11.588;2023-03-05T07:36:12;2.50;94.40
42421;DHT22;28063;48.140;11.588;2023-03-05T07:38:38;2.50;94.50
42421;DHT22;28063;48.140;11.588;2023-03-05T07:41:10;2.60;94.50
42421;DHT22;28063;48.140;11.588;2023-03-05T07:43:36;2.60;94.40
42421;DHT22;28063;48.140;11.588;2023-03-05T07:46:06;2.50;94.40
42421;DHT22;28063;48.140;11.588;2023-03-05T07:48:32;2.60;94.40
42421;DHT22;28063;48.140;11.588;2023-03-05T07:51:06;2.60;94.40
42421;DHT22;28063;48.140;11.588;2023-03-05T07:53:34;2.60;94.20
42421;DHT22;28063;48.140;11.588;2023-03-05T07:55:59;2.60;94.20
42421;DHT22;28063;48.140;11.588;2023-03-05T07:58:25;2.60;94.20
42421;DHT22;28063;48.140;11.588;2023-03-05T08:00:51;2.60;94.30
42421;DHT22;28063;48.140;11.588;2023-03-05T08:03:17;2.60;94.40
42421;DHT22;28063;48.140;11.588;2023-03-05T08:05:45;2.70;94.40
42421;DHT22;28063;48.140;11.588;2023-03-05T08:08:11;2.70;94.40
42421;DHT22;28063;48.140;11.588;2023-03-05T08:10:38;2.80;94.30
42421;DHT22;28063;48.140;11.588;2023-03-05T08:13:04;2.80;94.10
42421;DHT22;28063;48.140;11.588;2023-03-05T08:15:30;2.90;94.10
42421;DHT22;28063;48.140;11.588;2023-03-05T08:17:59;2.90;94.10
42421;DHT22;28063;48.140;11.588;2023-03-05T08:20:25;3.00;94.00
42421;DHT22;28063;48.140;11.588;2023-03-05T08:22:51;3.00;93.90
42421;DHT22;28063;48.140;11.588;2023-03-05T08:25:16;3.00;93.90
42421;DHT22;28063;48.140;11.588;2023-03-05T08:27:47;3.10;94.00
42421;DHT22;28063;48.140;11.588;2023-03-05T08:30:18;3.10;93.80
42421;DHT22;28063;48.140;11.588;2023-03-05T08:32:44;3.20;93.70
42421;DHT22;28063;48.140;11.588;2023-03-05T08:35:09;3.20;93.70
42421;DHT22;28063;48.140;11.588;2023-03-05T08:37:35;3.30;93.60
42421;DHT22;28063;48.140;11.588;2023-03-05T08:40:01;3.40;93.50
42421;DHT22;28063;48.140;11.588;2023-03-05T08:42:27;3.40;93.30
42421;DHT22;28063;48.140;11.588;2023-03-05T08:44:53;3.50;93.20
42421;DHT22;28063;48.140;11.588;2023-03-05T08:47:18;3.60;93.00
42421;DHT22;28063;48.140;11.588;2023-03-05T08:49:45;3.60;92.70
42421;DHT22;28063;48.140;11.588;2023-03-05T08:52:11;3.60;92.60
42421;DHT22;28063;48.140;11.588;2023-03-05T08:54:37;3.60;92.70
42421;DHT22;28063;48.140;11.588;2023-03-05T08:57:03;3.60;92.50
42421;DHT22;28063;48.140;11.588;2023-03-05T08:59:29;3.70;92.70
42421;DHT22;28063;48.140;11.588;2023-03-05T09:01:55;3.70;92.60
42421;DHT22;28063;48.140;11.588;2023-03-05T09:04:24;3.80;92.70
42421;DHT22;28063;48.140;11.588;2023-03-05T09:06:49;3.90;92.40
42421;DHT22;28063;48.140;11.588;2023-03-05T09:09:15;4.00;92.10
42421;DHT22;28063;48.140;11.588;2023-03-05T09:11:45;4.10;91.90
42421;DHT22;28063;48.140;11.588;2023-03-05T09:14:10;4.20;92.10
42421;DHT22;28063;48.140;11.588;2023-03-05T09:16:36;4.30;92.10
42421;DHT22;28063;48.140;11.588;2023-03-05T09:19:05;4.40;91.30
42421;DHT22;28063;48.140;11.588;2023-03-05T09:21:33;4.40;91.30
42421;DHT22;28063;48.140;11.588;2023-03-05T09:24:02;4.40;91.10
42421;DHT22;28063;48.140;11.588;2023-03-05T09:26:28;4.30;91.00
42421;DHT22;28063;48.140;11.588;2023-03-05T09:28:54;4.20;91.20
42421;DHT22;28063;48.140;11.588;2023-03-05T09:31:22;4.20;91.50
42421;DHT22;28063;48.140;11.588;2023-03-05T09:33:51;4.20;91.30
42421;DHT22;28063;48.140;11.588;2023-03-05T09:36:19;4.10;91.00
42421;DHT22;28063;48.140;11.588;2023-03-05T09:38:45;4.00;91.10
42421;DHT22;28063;48.140;11.588;2023-03-05T09:44:04;3.90;91.50
42421;DHT22;28063;48.140;11.588;2023-03-05T09:49:52;3.70;91.60
42421;DHT22;28063;48.140;11.588;2023-03-05T09:52:24;3.70;91.80
42421;DHT22;28063;48.140;11.588;2023-03-05T09:54:55;3.60;92.10
42421;DHT22;28063;48.140;11.588;2023-03-05T09:57:28;3.70;92.30
42421;DHT22;28063;48.140;11.588;2023-03-05T10:00:04;3.70;92.40
42421;DHT22;28063;48.140;11.588;2023-03-05T10:02:36;3.80;92.30
42421;DHT22;28063;48.140;11.588;2023-03-05T10:07:43;4.00;92.50
42421;DHT22;28063;48.140;11.588;2023-03-05T10:10:52;4.10;92.00
42421;DHT22;28063;48.140;11.588;2023-03-05T10:13:01;4.20;91.90
42421;DHT22;28063;48.140;11.588;2023-03-05T10:18:40;4.20;91.60
42421;DHT22;28063;48.140;11.588;2023-03-05T10:21:27;4.20;91.10
42421;DHT22;28063;48.140;11.588;2023-03-05T10:24:21;4.20;91.20
42421;DHT22;28063;48.140;11.588;2023-03-05T10:27:07;4.20;91.40
42421;DHT22;28063;48.140;11.588;2023-03-05T10:38:02;4.20;91.80
42421;DHT22;28063;48.140;11.588;2023-03-05T10:40:39;4.30;91.70
42421;DHT22;28063;48.140;11.588;2023-03-05T10:45:42;4.50;91.50
42421;DHT22;28063;48.140;11.588;2023-03-05T10:48:40;4.50;91.20
42421;DHT22;28063;48.140;11.588;2023-03-05T10:51:38;4.50;91.20
42421;DHT22;28063;48.140;11.588;2023-03-05T10:54:27;4.50;90.80
42421;DHT22;28063;48.140;11.588;2023-03-05T10:57:04;4.50;90.60
42421;DHT22;28063;48.140;11.588;2023-03-05T10:59:31;4.40;90.40
42421;DHT22;28063;48.140;11.588;2023-03-05T11:02:08;4.40;90.80
42421;DHT22;28063;48.140;11.588;2023-03-05T11:04:36;4.40;90.40
42421;DHT22;28063;48.140;11.588;2023-03-05T11:07:29;4.30;90.70
42421;DHT22;28063;48.140;11.588;2023-03-05T11:10:03;4.30;91.20
42421;DHT22;28063;48.140;11.588;2023-03-05T11:12:36;4.40;91.50
42421;DHT22;28063;48.140;11.588;2023-03-05T11:15:18;4.40;91.10
42421;DHT22;28063;48.140;11.588;2023-03-05T11:18:03;4.50;91.10
42421;DHT22;28063;48.140;11.588;2023-03-05T11:20:31;4.50;91.00
42421;DHT22;28063;48.140;11.588;2023-03-05T11:25:53;4.50;91.10
42421;DHT22;28063;48.140;11.588;2023-03-05T11:28:23;4.60;90.80
42421;DHT22;28063;48.140;11.588;2023-03-05T11:31:03;4.60;90.40
42421;DHT22;28063;48.140;11.588;2023-03-05T11:33:29;4.50;90.60
42421;DHT22;28063;48.140;11.588;2023-03-05T11:38:44;4.50;90.90
42421;DHT22;28063;48.140;11.588;2023-03-05T11:41:11;4.50;90.70
42421;DHT22;28063;48.140;11.588;2023-03-05T11:43:38;4.50;90.80
42421;DHT22;28063;48.140;11.588;2023-03-05T11:46:11;4.50;90.80
42421;DHT22;28063;48.140;11.588;2023-03-05T11:48:38;4.60;90.60
42421;DHT22;28063;48.140;11.588;2023-03-05T11:51:25;4.50;90.60
42421;DHT22;28063;48.140;11.588;2023-03-05T11:53:56;4.60;91.00
42421;DHT22;28063;48.140;11.588;2023-03-05T11:56:26;4.60;90.60
42421;DHT22;28063;48.140;11.588;2023-03-05T12:01:36;4.60;91.00
42421;DHT22;28063;48.140;11.588;2023-03-05T12:04:04;4.60;90.80
42421;DHT22;28063;48.140;11.588;2023-03-05T12:06:34;4.60;90.40
42421;DHT22;28063;48.140;11.588;2023-03-05T12:09:11;4.60;90.80
42421;DHT22;28063;48.140;11.588;2023-03-05T12:11:38;4.70;90.90
42421;DHT22;28063;48.140;11.588;2023-03-05T12:14:19;4.80;90.60
42421;DHT22;28063;48.140;11.588;2023-03-05T12:16:51;4.90;90.00
42421;DHT22;28063;48.140;11.588;2023-03-05T12:19:34;4.90;90.00
42421;DHT22;28063;48.140;11.588;2023-03-05T12:22:03;5.00;89.50
42421;DHT22;28063;48.140;11.588;2023-03-05T12:27:07;5.30;88.80
42421;DHT22;28063;48.140;11.588;2023-03-05T12:35:25;5.60;84.90
42421;DHT22;28063;48.140;11.588;2023-03-05T12:40:21;5.60;83.20
42421;DHT22;28063;48.140;11.588;2023-03-05T12:42:54;5.60;83.00
42421;DHT22;28063;48.140;11.588;2023-03-05T12:45:24;5.60;82.30
42421;DHT22;28063;48.140;11.588;2023-03-05T13:03:38;5.40;81.50
42421;DHT22;28063;48.140;11.588;2023-03-05T13:06:05;5.50;81.80
42421;DHT22;28063;48.140;11.588;2023-03-05T13:08:35;5.60;79.80
42421;DHT22;28063;48.140;11.588;2023-03-05T13:11:17;5.50;79.70
42421;DHT22;28063;48.140;11.588;2023-03-05T13:13:46;5.50;79.00
42421;DHT22;28063;48.140;11.588;2023-03-05T13:16:21;5.50;78.40
42421;DHT22;28063;48.140;11.588;2023-03-05T13:18:48;5.50;78.80
42421;DHT22;28063;48.140;11.588;2023-03-05T13:21:19;5.70;78.70
42421;DHT22;28063;48.140;11.588;2023-03-05T13:23:53;5.80;78.30
42421;DHT22;28063;48.140;11.588;2023-03-05T13:26:35;5.90;78.30
42421;DHT22;28063;48.140;11.588;2023-03-05T13:31:43;6.20;77.00
42421;DHT22;28063;48.140;11.588;2023-03-05T13:34:24;6.30;76.80
42421;DHT22;28063;48.140;11.588;2023-03-05T13:39:30;6.50;76.00
42421;DHT22;28063;48.140;11.588;2023-03-05T13:44:29;6.50;73.70
42421;DHT22;28063;48.140;11.588;2023-03-05T13:47:16;6.30;74.60
42421;DHT22;28063;48.140;11.588;2023-03-05T13:49:46;6.10;76.50
42421;DHT22;28063;48.140;11.588;2023-03-05T13:52:23;6.10;77.20
42421;DHT22;28063;48.140;11.588;2023-03-05T13:54:49;6.10;76.60
42421;DHT22;28063;48.140;11.588;2023-03-05T13:57:38;6.10;75.30
42421;DHT22;28063;48.140;11.588;2023-03-05T14:02:54;5.90;76.00
42421;DHT22;28063;48.140;11.588;2023-03-05T14:05:21;6.00;76.00
42421;DHT22;28063;48.140;11.588;2023-03-05T14:07:48;6.00;75.10
42421;DHT22;28063;48.140;11.588;2023-03-05T14:10:33;5.90;74.90
42421;DHT22;28063;48.140;11.588;2023-03-05T14:13:04;5.80;76.50
42421;DHT22;28063;48.140;11.588;2023-03-05T14:15:32;5.60;76.50
42421;DHT22;28063;48.140;11.588;2023-03-05T14:20:37;5.50;77.30
42421;DHT22;28063;48.140;11.588;2023-03-05T14:26:20;5.40;77.60
42421;DHT22;28063;48.140;11.588;2023-03-05T14:28:52;5.40;77.60
42421;DHT22;28063;48.140;11.588;2023-03-05T14:31:20;5.20;78.10
42421;DHT22;28063;48.140;11.588;2023-03-05T14:33:46;5.20;78.40
42421;DHT22;28063;48.140;11.588;2023-03-05T14:36:13;5.10;79.80
42421;DHT22;28063;48.140;11.588;2023-03-05T14:38:41;5.10;79.70
42421;DHT22;28063;48.140;11.588;2023-03-05T14:44:12;5.00;80.00
42421;DHT22;28063;48.140;11.588;2023-03-05T14:46:38;4.90;80.70
42421;DHT22;28063;48.140;11.588;2023-03-05T14:49:03;4.90;81.40
42421;DHT22;28063;48.140;11.588;2023-03-05T14:51:31;4.90;82.10
42421;DHT22;28063;48.140;11.588;2023-03-05T14:53:58;4.90;82.00
42421;DHT22;28063;48.140;11.588;2023-03-05T14:56:25;4.90;82.20
42421;DHT22;28063;48.140;11.588;2023-03-05T14:58:52;4.90;81.90
42421;DHT22;28063;48.140;11.588;2023-03-05T15:01:18;4.90;81.80
42421;DHT22;28063;48.140;11.588;2023-03-05T15:03:44;4.90;81.70
42421;DHT22;28063;48.140;11.588;2023-03-05T15:06:19;4.90;81.40
42421;DHT22;28063;48.140;11.588;2023-03-05T15:08:46;4.80;81.90
42421;DHT22;28063;48.140;11.588;2023-03-05T15:11:12;4.80;82.60
42421;DHT22;28063;48.140;11.588;2023-03-05T15:13:38;4.80;82.40
42421;DHT22;28063;48.140;11.588;2023-03-05T15:16:04;4.80;82.50
42421;DHT22;28063;48.140;11.588;2023-03-05T15:18:31;4.70;81.80
42421;DHT22;28063;48.140;11.588;2023-03-05T15:20:56;4.60;82.50
42421;DHT22;28063;48.140;11.588;2023-03-05T15:23:22;4.60;83.10
42421;DHT22;28063;48.140;11.588;2023-03-05T15:25:49;4.60;83.10
42421;DHT22;28063;48.140;11.588;2023-03-05T15:28:15;4.50;83.40
42421;DHT22;28063;48.140;11.588;2023-03-05T15:30:44;4.50;83.90
42421;DHT22;28063;48.140;11.588;2023-03-05T15:33:12;4.30;84.60
42421;DHT22;28063;48.140;11.588;2023-03-05T15:35:39;4.30;84.70
42421;DHT22;28063;48.140;11.588;2023-03-05T15:38:04;4.20;84.90
42421;DHT22;28063;48.140;11.588;2023-03-05T15:40:31;4.20;85.20
42421;DHT22;28063;48.140;11.588;2023-03-05T15:42:59;4.20;84.90
42421;DHT22;28063;48.140;11.588;2023-03-05T15:45:25;4.20;84.30
42421;DHT22;28063;48.140;11.588;2023-03-05T15:47:52;4.10;84.50
42421;DHT22;28063;48.140;11.588;2023-03-05T15:50:19;4.10;84.70
42421;DHT22;28063;48.140;11.588;2023-03-05T15:52:45;4.10;84.30
42421;DHT22;28063;48.140;11.588;2023-03-05T15:55:11;4.10;84.30
42421;DHT22;28063;48.140;11.588;2023-03-05T15:57:41;4.10;84.40
42421;DHT22;28063;48.140;11.588;2023-03-05T16:00:08;4.10;83.70
42421;DHT22;28063;48.140;11.588;2023-03-05T16:02:34;4.10;83.40
42421;DHT22;28063;48.140;11.588;2023-03-05T16:05:03;4.00;83.30
42421;DHT22;28063;48.140;11.588;2023-03-05T16:07:29;4.00;81.80
42421;DHT22;28063;48.140;11.588;2023-03-05T16:09:56;3.90;81.70
42421;DHT22;28063;48.140;11.588;2023-03-05T16:12:25;3.90;82.20
42421;DHT22;28063;48.140;11.588;2023-03-05T16:14:52;3.80;82.00
42421;DHT22;28063;48.140;11.588;2023-03-05T16:17:19;3.80;82.10
42421;DHT22;28063;48.140;11.588;2023-03-05T16:19:48;3.80;82.30
42421;DHT22;28063;48.140;11.588;2023-03-05T16:22:14;3.80;81.70
42421;DHT22;28063;48.140;11.588;2023-03-05T16:24:40;3.80;81.70
42421;DHT22;28063;48.140;11.588;2023-03-05T16:27:05;3.70;82.00
42421;DHT22;28063;48.140;11.588;2023-03-05T16:29:31;3.70;82.00
42421;DHT22;28063;48.140;11.588;2023-03-05T16:31:58;3.70;81.60
42421;DHT22;28063;48.140;11.588;2023-03-05T16:34:24;3.70;79.70
42421;DHT22;28063;48.140;11.588;2023-03-05T16:36:50;3.70;79.30
42421;DHT22;28063;48.140;11.588;2023-03-05T16:39:18;3.70;79.40
42421;DHT22;28063;48.140;11.588;2023-03-05T16:41:44;3.60;78.70
42421;DHT22;28063;48.140;11.588;2023-03-05T16:44:09;3.50;79.00
42421;DHT22;28063;48.140;11.588;2023-03-05T16:46:35;3.50;79.50
42421;DHT22;28063;48.140;11.588;2023-03-05T16:49:02;3.50;79.50
42421;DHT22;28063;48.140;11.588;2023-03-05T16:51:27;3.50;79.60
42421;DHT22;28063;48.140;11.588;2023-03-05T16:53:53;3.50;79.50
42421;DHT22;28063;48.140;11.588;2023-03-05T16:56:19;3.50;79.50
42421;DHT22;28063;48.140;11.588;2023-03-05T16:58:45;3.40;79.40
42421;DHT22;28063;48.140;11.588;2023-03-05T17:01:14;3.50;79.00